メインページ
METAR-TAF:

METAR-TAF

空港 :

ヌメア国際空港, ニューカレドニア

緯度: 22-01S, 経度: 166-13E, 海抜: 16m

現時点の気象観測

当レポートは27分前の13:00(UTC)に作成
東/南東の風 4kt
気温 21°C
湿度 78%
気圧 1012 hPa
視程10km以上
1,500メートル以下は雲なし、積乱雲なし

METAR: NWWW 101300Z AUTO 12004KT CAVOK 21/17 Q1012 NOSIG

時間: 00:27 (13:27 UTC)

予報

当レポートは2時間27分前の11:00(UTC)に作成
予報は10日の 12時(UTC)から 11日の 12時(UTC)まで有効
変向風 2kt
視程10km以上
高度4000ftの雲はほとんどない
10日の 22時(UTC)から 11日の 01時(UTC)まで徐々に
南/南東の風 18kt
11日の 06時(UTC)から 11日の 09時(UTC)まで徐々に
変向風 2kt

TAF: NWWW 101100Z 1012/1112 VRB02KT 9999 FEW040 BECMG 1022/1101 15018KT BECMG 1106/1109 VRB02KT

4,000以上の空港の気象観測と天気予報(METAR報とTAF報)

利用可能な観測所は地図上に黄色い丸と赤い丸で示す。

丸の上にカーソルを重ねると観測所名を参照できる。

次にクリックすると気象観測と天気予報を参照できる。

マップの切り替え:黒色「×」印の緑ボタンをクリックして拡大、「-」印の緑ボタンをクリックして縮小、緑色の三角印をクリックして隣りの地図に切り替え


METAR-TAF: